Nearby METAR Reports

 

KFRG - , , USA
Distance from station: SSW 12mi, 20km
Updated: 01/25/2021 11:53am
Clear
Clear
 Wind from NNW
Wind: NNW 9 mph , 15 km/h
Temperature: 34°F , 1°C
Wind Chill: 27°F , -3°C
Dew Point: 9°F , -13°C
Humidity: 35%
Barometer: 30.10 inHg , 1019.3 hPa
Clouds: Clear
Visibility: 10 miles , 16 km
2021/01/25 16:53 KFRG 251653Z AUTO 34008KT 10SM CLR 01/M13 A3010 RMK AO2 SLP192 T00061128
KISP - , , USA
Distance from station: ESE 14mi, 23km
Updated: 01/25/2021 11:56am
Mostly cloudy
Mostly cloudy
 Wind from NNW
Wind: NNW 14 mph , 22 km/h
Temperature: 32°F , 0°C
Wind Chill: 22°F , -6°C
Dew Point: 12°F , -11°C
Humidity: 44%
Barometer: 30.08 inHg , 1018.6 hPa
Clouds: Mostly cloudy
Visibility: 10 miles , 16 km
Cloud details: Few Clouds 12000 ft
Mostly cloudy 25000 ft
2021/01/25 16:56 KISP 251656Z 33012KT 10SM FEW120 BKN250 00/M11 A3008 RMK AO2 SLP187 T00001111
 
KBDR - , , USA
Distance from station: NNE 21mi, 34km
Updated: 01/25/2021 11:52am
Clear
Clear
 Wind from NW
Wind: NW 7 mph , 11 km/h
Temperature: 34°F , 1°C
Wind Chill: 28°F , -2°C
Dew Point: 10°F , -12°C
Humidity: 38%
Barometer: 30.08 inHg , 1018.6 hPa
Clouds: Clear
Visibility: 10 miles , 16 km
2021/01/25 16:52 KBDR 251652Z 31006KT 10SM CLR 01/M12 A3008
KHPN - , , USA
Distance from station: WNW 22mi, 35km
Updated: 01/25/2021 11:56am
Clear
Clear
 Wind from NNW
Wind: NNW 9 mph , 15 km/h
Temperature: 32°F , 0°C
Wind Chill: 24°F , -4°C
Dew Point: 9°F , -13°C
Humidity: 37%
Barometer: 30.07 inHg , 1018.3 hPa
Clouds: Clear
Visibility: 10 miles , 16 km
2021/01/25 16:56 KHPN 251656Z 33008KT 10SM CLR 00/M13 A3007 RMK AO2 SLP192 T00001128
 
KHWV - , , USA
Distance from station: ESE 26mi, 41km
Updated: 01/25/2021 11:56am
Clear
Clear
 Wind from NW
Wind: NW 14 mph , 22 km/h
Temperature: 34°F , 1°C
Wind Chill: 25°F , -4°C
Dew Point: 10°F , -12°C
Humidity: 38%
Barometer: 30.08 inHg , 1018.6 hPa
Clouds: Clear
Visibility: 10 miles , 16 km
2021/01/25 16:56 KHWV 251656Z AUTO 31012KT 10SM CLR 01/M12 A3008 RMK AO2 SLP188 T00061122
KJFK - , , USA
Distance from station: SW 29mi, 46km
Updated: 01/25/2021 11:51am
Mostly cloudy
Mostly cloudy
 Wind from NNW
Wind: NNW 8 mph , 13 km/h
Temperature: 36°F , 2°C
Wind Chill: 30°F , -1°C
Dew Point: 9°F , -13°C
Humidity: 32%
Barometer: 30.11 inHg , 1019.6 hPa
Clouds: Mostly cloudy
Visibility: 10 miles , 16 km
Cloud details: Few Clouds 8000 ft
Few Clouds 21000 ft
Mostly cloudy 25000 ft
2021/01/25 16:51 KJFK 251651Z 33007KT 10SM FEW080 FEW210 BKN250 02/M13 A3011 RMK AO2 SLP196 T00221128
 
KLGA - , , USA
Distance from station: WSW 29mi, 47km
Updated: 01/25/2021 11:51am
Mostly cloudy
Mostly cloudy
 Wind from NNW
Wind: NNW 6 mph , 9 km/h
Temperature: 36°F , 2°C
Wind Chill: 31°F , -1°C
Dew Point: 9°F , -13°C
Humidity: 32%
Barometer: 30.10 inHg , 1019.3 hPa
Clouds: Mostly cloudy
Visibility: 10 miles , 16 km
Cloud details: Few Clouds 3700 ft
Few Clouds 8000 ft
Mostly cloudy 25000 ft
2021/01/25 16:51 KLGA 251651Z 34005KT 10SM FEW037 FEW080 BKN250 02/M13 A3010 RMK AO2 SLP193 T00171128